createdAt,value
2018-03-20T00:00:15.196Z,991.3
2018-03-20T00:01:15.841Z,991.4
2018-03-20T00:02:16.485Z,991.3
2018-03-20T00:03:17.132Z,991.3
2018-03-20T00:04:17.777Z,991.3
2018-03-20T00:05:18.423Z,991.3
2018-03-20T00:06:19.068Z,991.2
2018-03-20T00:07:19.713Z,991.3
2018-03-20T00:08:20.358Z,991.3
2018-03-20T00:09:21.005Z,991.3
2018-03-20T00:10:21.699Z,991.3
2018-03-20T00:11:22.344Z,991.2
2018-03-20T00:12:22.989Z,991.2
2018-03-20T00:13:23.633Z,991.2
2018-03-20T00:14:24.315Z,991.3
2018-03-20T00:15:24.960Z,991.2
2018-03-20T00:16:25.605Z,991.2
2018-03-20T00:17:26.252Z,991.2
2018-03-20T00:18:26.896Z,991.2
2018-03-20T00:19:27.544Z,991.2
2018-03-20T00:20:28.187Z,991.2
2018-03-20T00:21:28.832Z,991.2
2018-03-20T00:22:29.477Z,991.2
2018-03-20T00:23:30.120Z,991.3
2018-03-20T00:24:30.766Z,991.3
2018-03-20T00:25:31.411Z,991.3
2018-03-20T00:26:32.055Z,991.3
2018-03-20T00:27:32.699Z,991.2
2018-03-20T00:28:33.343Z,991.3
2018-03-20T00:29:34.084Z,991.2
2018-03-20T00:30:34.663Z,991.2
2018-03-20T00:31:35.306Z,991.2
2018-03-20T00:32:35.953Z,991.2
2018-03-20T00:33:36.599Z,991.2
2018-03-20T00:34:37.241Z,991.2
2018-03-20T00:35:37.885Z,991.2
2018-03-20T00:36:38.539Z,991.2
2018-03-20T00:37:39.181Z,991.3
2018-03-20T00:38:39.862Z,991.2
2018-03-20T00:39:40.508Z,991.2
2018-03-20T00:40:41.153Z,991.2
2018-03-20T00:41:41.800Z,991.1
2018-03-20T00:42:42.443Z,991.2
2018-03-20T00:43:43.087Z,991.2
2018-03-20T00:44:43.732Z,991.1
2018-03-20T00:45:44.379Z,991.1
2018-03-20T00:46:45.024Z,991.1
2018-03-20T00:47:45.675Z,991.1
2018-03-20T00:48:46.313Z,991.1
2018-03-20T00:49:46.958Z,991.1
2018-03-20T00:50:47.603Z,991.1
2018-03-20T00:51:48.248Z,991.1
2018-03-20T00:52:48.892Z,991.1
2018-03-20T00:53:49.538Z,991.1
2018-03-20T00:54:50.182Z,991.1
2018-03-20T00:55:50.828Z,991.1
2018-03-20T00:56:51.471Z,991.1
2018-03-20T00:57:52.116Z,991.1
2018-03-20T00:58:52.761Z,991.1
2018-03-20T00:59:53.405Z,991.1
2018-03-20T01:00:54.049Z,991.1
2018-03-20T01:01:54.697Z,991.1
2018-03-20T01:02:55.339Z,991.1
2018-03-20T01:03:55.983Z,991.1
2018-03-20T01:04:56.630Z,991.1
2018-03-20T01:05:57.274Z,991.1
2018-03-20T01:06:57.919Z,991.1
2018-03-20T01:07:58.562Z,991.1
2018-03-20T01:08:59.207Z,991.1
2018-03-20T01:09:59.852Z,991.1
2018-03-20T01:11:00.496Z,991.1
2018-03-20T01:12:01.142Z,991.1
2018-03-20T01:13:01.786Z,991.1
2018-03-20T01:14:02.469Z,991.1
2018-03-20T01:15:03.114Z,991.1
2018-03-20T01:16:03.758Z,991.1
2018-03-20T01:17:04.403Z,991.1
2018-03-20T01:18:05.048Z,991.1
2018-03-20T01:19:05.700Z,991.1
2018-03-20T01:20:06.341Z,991.1
2018-03-20T01:21:06.985Z,991.1
2018-03-20T01:22:07.631Z,991.1
2018-03-20T01:23:08.274Z,991.1
2018-03-20T01:24:08.918Z,991.1
2018-03-20T01:25:09.563Z,991.1
2018-03-20T01:26:10.206Z,991.1
2018-03-20T01:27:10.852Z,991.1
2018-03-20T01:28:11.497Z,991.0
2018-03-20T01:29:12.141Z,991.0
2018-03-20T01:30:12.785Z,991.0
2018-03-20T01:31:13.430Z,991.0
2018-03-20T01:32:14.074Z,991.0
2018-03-20T01:33:14.719Z,991.0
2018-03-20T01:34:15.364Z,991.1
2018-03-20T01:35:16.045Z,991.0
2018-03-20T01:36:16.689Z,991.0
2018-03-20T01:37:17.332Z,991.0
2018-03-20T01:38:17.979Z,991.0
2018-03-20T01:39:18.622Z,991.0
2018-03-20T01:40:19.266Z,991.0
2018-03-20T01:41:19.910Z,991.0
2018-03-20T01:42:20.554Z,991.0
2018-03-20T01:43:21.199Z,991.0
2018-03-20T01:44:21.843Z,991.0
2018-03-20T01:45:22.492Z,991.0
2018-03-20T01:46:23.168Z,991.0
2018-03-20T01:47:23.812Z,991.0
2018-03-20T01:48:24.456Z,991.0
2018-03-20T01:49:25.102Z,991.0
2018-03-20T01:50:25.747Z,990.9
2018-03-20T01:51:26.391Z,991.0
2018-03-20T01:52:27.035Z,991.0
2018-03-20T01:53:27.693Z,991.0
2018-03-20T01:54:28.362Z,991.0
2018-03-20T01:55:29.006Z,991.0
2018-03-20T01:56:29.652Z,991.0
2018-03-20T01:57:30.295Z,991.0
2018-03-20T01:58:30.940Z,991.0
2018-03-20T01:59:31.585Z,991.0
2018-03-20T02:00:32.228Z,991.0
2018-03-20T02:01:32.875Z,990.9
2018-03-20T02:02:33.517Z,990.9
2018-03-20T02:03:34.161Z,990.9
2018-03-20T02:04:34.805Z,990.9
2018-03-20T02:05:35.449Z,991.0
2018-03-20T02:06:36.094Z,990.9
2018-03-20T02:07:36.738Z,991.0
2018-03-20T02:08:37.383Z,991.0
2018-03-20T02:09:38.027Z,991.0
2018-03-20T02:10:38.672Z,990.9
2018-03-20T02:11:39.319Z,990.9
2018-03-20T02:12:39.962Z,990.9
2018-03-20T02:13:40.607Z,991.0
2018-03-20T02:14:41.251Z,990.9
2018-03-20T02:15:41.897Z,990.9
2018-03-20T02:16:42.541Z,990.9
2018-03-20T02:17:43.185Z,990.9
2018-03-20T02:18:43.829Z,990.9
2018-03-20T02:19:44.476Z,990.9
2018-03-20T02:20:45.119Z,990.9
2018-03-20T02:21:45.764Z,990.9
2018-03-20T02:22:46.406Z,990.9
2018-03-20T02:23:47.052Z,990.9
2018-03-20T02:24:47.697Z,990.9
2018-03-20T02:25:48.340Z,990.9
2018-03-20T02:26:48.984Z,990.9
2018-03-20T02:27:49.630Z,990.9
2018-03-20T02:28:50.274Z,990.9
2018-03-20T02:29:50.917Z,990.9
2018-03-20T02:30:51.562Z,990.9
2018-03-20T02:31:52.245Z,990.9
2018-03-20T02:32:52.892Z,990.9
2018-03-20T02:33:53.534Z,990.9
2018-03-20T02:34:54.179Z,990.9
2018-03-20T02:35:54.824Z,990.9
2018-03-20T02:36:55.475Z,990.9
2018-03-20T02:37:56.114Z,990.9
2018-03-20T02:38:56.758Z,990.9
2018-03-20T02:39:57.404Z,990.9
2018-03-20T02:40:58.047Z,990.9
2018-03-20T02:41:58.691Z,990.9
2018-03-20T02:42:59.335Z,990.9
2018-03-20T02:43:59.980Z,990.8
2018-03-20T02:45:00.626Z,990.9
2018-03-20T02:46:01.270Z,990.9
2018-03-20T02:47:01.928Z,990.9
2018-03-20T02:48:02.566Z,990.9
2018-03-20T02:49:03.205Z,990.9
2018-03-20T02:50:03.851Z,990.9
2018-03-20T02:51:04.500Z,990.8
2018-03-20T02:52:05.141Z,990.8
2018-03-20T02:53:05.790Z,990.7
2018-03-20T02:54:06.467Z,990.7
2018-03-20T02:55:07.111Z,990.7
2018-03-20T02:56:07.760Z,990.7
2018-03-20T02:57:08.403Z,990.7
2018-03-20T02:58:09.046Z,990.7
2018-03-20T02:59:09.689Z,990.7
2018-03-20T03:00:10.333Z,990.7
2018-03-20T03:01:10.978Z,990.7
2018-03-20T03:02:11.624Z,990.8
2018-03-20T03:03:12.268Z,990.8
2018-03-20T03:04:12.913Z,990.8
2018-03-20T03:05:13.557Z,990.8
2018-03-20T03:06:14.203Z,990.9
2018-03-20T03:07:14.845Z,990.8
2018-03-20T03:08:15.490Z,990.8
2018-03-20T03:09:16.138Z,990.8
2018-03-20T03:10:16.781Z,990.8
2018-03-20T03:11:17.423Z,990.8
2018-03-20T03:12:18.122Z,990.8
2018-03-20T03:13:18.711Z,990.8
2018-03-20T03:14:19.357Z,990.8
2018-03-20T03:15:20.001Z,990.8
2018-03-20T03:16:20.645Z,990.8
2018-03-20T03:17:21.290Z,990.8
2018-03-20T03:18:21.933Z,990.8
2018-03-20T03:19:22.613Z,990.8
2018-03-20T03:20:23.260Z,990.8
2018-03-20T03:21:23.902Z,990.9
2018-03-20T03:22:24.548Z,990.9
2018-03-20T03:23:25.195Z,991.0
2018-03-20T03:24:25.836Z,990.9
2018-03-20T03:25:26.479Z,991.0
2018-03-20T03:26:27.133Z,990.9
2018-03-20T03:27:27.780Z,991.0
2018-03-20T03:28:28.432Z,990.9
2018-03-20T03:29:29.067Z,990.9
2018-03-20T03:30:29.712Z,990.9
2018-03-20T03:31:30.357Z,990.9
2018-03-20T03:32:31.000Z,990.9
2018-03-20T03:33:31.648Z,990.8
2018-03-20T03:34:32.287Z,990.8
2018-03-20T03:35:32.932Z,990.8
2018-03-20T03:36:33.575Z,990.8
2018-03-20T03:37:34.219Z,990.8
2018-03-20T03:38:34.863Z,990.8
2018-03-20T03:39:35.508Z,990.8
2018-03-20T03:40:36.152Z,990.8
2018-03-20T03:41:36.796Z,990.7
2018-03-20T03:42:37.440Z,990.8
2018-03-20T03:43:38.084Z,990.8
2018-03-20T03:44:38.728Z,990.8
2018-03-20T03:45:39.372Z,990.7
2018-03-20T03:46:40.017Z,990.8
2018-03-20T03:47:40.700Z,990.8
2018-03-20T03:48:41.379Z,990.8
2018-03-20T03:49:42.024Z,990.8
2018-03-20T03:50:42.667Z,990.8
2018-03-20T03:51:43.313Z,990.8
2018-03-20T03:52:43.956Z,990.7
2018-03-20T03:53:44.601Z,990.7
2018-03-20T03:54:45.243Z,990.8
2018-03-20T03:55:45.889Z,990.7
2018-03-20T03:56:46.535Z,990.8
2018-03-20T03:57:47.176Z,990.8
2018-03-20T03:58:47.822Z,990.8
2018-03-20T03:59:48.465Z,990.8
2018-03-20T04:00:49.107Z,990.7
2018-03-20T04:01:49.752Z,990.7
2018-03-20T04:02:50.395Z,990.7
2018-03-20T04:03:51.041Z,990.7
2018-03-20T04:04:51.685Z,990.7
2018-03-20T04:05:52.329Z,990.7
2018-03-20T04:06:53.008Z,990.8
2018-03-20T04:07:53.654Z,990.8
2018-03-20T04:08:54.298Z,990.8
2018-03-20T04:09:54.943Z,990.8
2018-03-20T04:10:55.587Z,990.9
2018-03-20T04:11:56.232Z,990.9
2018-03-20T04:12:56.874Z,990.9
2018-03-20T04:13:57.518Z,990.9
2018-03-20T04:14:58.162Z,990.9
2018-03-20T04:15:58.808Z,990.9
2018-03-20T04:16:59.451Z,990.9
2018-03-20T04:18:00.094Z,990.9
2018-03-20T04:19:00.740Z,990.9
2018-03-20T04:20:01.383Z,990.8
2018-03-20T04:21:02.027Z,990.8
2018-03-20T04:22:02.671Z,990.8
2018-03-20T04:23:03.316Z,990.8
2018-03-20T04:24:03.965Z,990.9
2018-03-20T04:25:04.607Z,990.9
2018-03-20T04:26:05.250Z,990.8
2018-03-20T04:27:05.895Z,990.8
2018-03-20T04:28:06.538Z,990.8
2018-03-20T04:29:07.186Z,990.8
2018-03-20T04:30:07.830Z,990.8
2018-03-20T04:31:08.475Z,990.8
2018-03-20T04:32:09.118Z,990.8
2018-03-20T04:33:09.763Z,990.8
2018-03-20T04:34:10.407Z,990.8
2018-03-20T04:35:11.051Z,990.8
2018-03-20T04:36:11.698Z,990.7
2018-03-20T04:37:12.339Z,990.7
2018-03-20T04:38:12.984Z,990.8
2018-03-20T04:39:13.626Z,990.7
2018-03-20T04:40:14.277Z,990.7
2018-03-20T04:41:14.915Z,990.7
2018-03-20T04:42:15.560Z,990.7
2018-03-20T04:43:16.204Z,990.7
2018-03-20T04:44:16.848Z,990.7
2018-03-20T04:45:17.491Z,990.7
2018-03-20T04:46:18.136Z,990.7
2018-03-20T04:47:18.785Z,990.6
2018-03-20T04:48:19.423Z,990.6
2018-03-20T04:49:20.067Z,990.6
2018-03-20T04:50:20.748Z,990.6
2018-03-20T04:51:21.391Z,990.5
2018-03-20T04:52:22.038Z,990.5
2018-03-20T04:53:22.678Z,990.5
2018-03-20T04:54:23.323Z,990.5
2018-03-20T04:55:23.971Z,990.5
2018-03-20T04:56:24.613Z,990.4
2018-03-20T04:57:25.293Z,990.4
2018-03-20T04:58:25.936Z,990.4
2018-03-20T04:59:26.601Z,990.4
2018-03-20T05:00:27.226Z,990.4
2018-03-20T05:01:27.870Z,990.4
2018-03-20T05:02:28.518Z,990.4
2018-03-20T05:03:29.162Z,990.4
2018-03-20T05:04:29.807Z,990.4
2018-03-20T05:05:30.452Z,990.4
2018-03-20T05:06:31.098Z,990.3
2018-03-20T05:07:31.745Z,990.3
2018-03-20T05:08:32.389Z,990.2
2018-03-20T05:09:33.036Z,990.3
2018-03-20T05:10:33.719Z,990.3
2018-03-20T05:11:34.363Z,990.3
2018-03-20T05:12:35.008Z,990.2
2018-03-20T05:13:35.653Z,990.3
2018-03-20T05:14:36.299Z,990.2
2018-03-20T05:15:36.945Z,990.2
2018-03-20T05:16:37.592Z,990.1
2018-03-20T05:17:38.237Z,990.2
2018-03-20T05:18:38.888Z,990.2
2018-03-20T05:19:39.567Z,990.2
2018-03-20T05:20:40.214Z,990.2
2018-03-20T05:21:40.864Z,990.2
2018-03-20T05:22:41.504Z,990.2
2018-03-20T05:23:42.252Z,990.2
2018-03-20T05:24:42.897Z,990.2
2018-03-20T05:25:43.544Z,990.3
2018-03-20T05:26:44.189Z,990.3
2018-03-20T05:27:44.837Z,990.2
2018-03-20T05:28:45.486Z,990.3
2018-03-20T05:29:46.133Z,990.3
2018-03-20T05:30:46.779Z,990.4
2018-03-20T05:31:47.424Z,990.4
2018-03-20T05:32:48.072Z,990.4
2018-03-20T05:33:48.770Z,990.3
2018-03-20T05:34:49.419Z,990.4
2018-03-20T05:35:50.066Z,990.3
2018-03-20T05:36:50.713Z,990.3
2018-03-20T05:37:51.362Z,990.3
2018-03-20T05:38:52.011Z,990.3
2018-03-20T05:39:52.658Z,990.3
2018-03-20T05:40:53.308Z,990.3
2018-03-20T05:41:54.017Z,990.4
2018-03-20T05:42:54.603Z,990.4
2018-03-20T05:43:55.252Z,990.4
2018-03-20T05:44:55.899Z,990.4
2018-03-20T05:45:56.547Z,990.4
2018-03-20T05:46:57.198Z,990.4
2018-03-20T05:47:57.845Z,990.4
2018-03-20T05:48:58.492Z,990.4
2018-03-20T05:49:59.142Z,990.4
2018-03-20T05:50:59.789Z,990.4
2018-03-20T05:52:00.438Z,990.4
2018-03-20T05:53:01.089Z,990.4
2018-03-20T05:54:01.738Z,990.4
2018-03-20T05:55:02.387Z,990.4
2018-03-20T05:56:03.037Z,990.4
2018-03-20T05:57:03.723Z,990.4
2018-03-20T05:58:04.373Z,990.4
2018-03-20T05:59:05.024Z,990.4
2018-03-20T06:00:05.673Z,990.3
2018-03-20T06:01:06.321Z,990.3
2018-03-20T06:02:06.970Z,990.4
2018-03-20T06:03:07.623Z,990.4
2018-03-20T06:04:08.307Z,990.4
2018-03-20T06:05:08.958Z,990.4
2018-03-20T06:06:09.607Z,990.5
2018-03-20T06:07:10.256Z,990.5
2018-03-20T06:08:10.906Z,990.5
2018-03-20T06:09:11.604Z,990.5
2018-03-20T06:10:12.257Z,990.4
2018-03-20T06:11:12.903Z,990.5
2018-03-20T06:12:13.552Z,990.5
2018-03-20T06:13:14.204Z,990.4
2018-03-20T06:14:14.854Z,990.4
2018-03-20T06:15:15.504Z,990.5
2018-03-20T06:16:16.157Z,990.5
2018-03-20T06:17:16.804Z,990.5
2018-03-20T06:18:17.453Z,990.5
2018-03-20T06:19:18.155Z,990.5
2018-03-20T06:20:18.806Z,990.4
2018-03-20T06:21:19.461Z,990.5
2018-03-20T06:22:20.109Z,990.5
2018-03-20T06:23:20.758Z,990.5
2018-03-20T06:24:21.407Z,990.6
2018-03-20T06:25:22.096Z,990.6
2018-03-20T06:26:22.744Z,990.6
2018-03-20T06:27:23.397Z,990.7
2018-03-20T06:28:24.049Z,990.6
2018-03-20T06:29:24.698Z,990.6
2018-03-20T06:30:25.346Z,990.6
2018-03-20T06:31:26.000Z,990.7
2018-03-20T06:32:26.653Z,990.6
2018-03-20T06:33:27.299Z,990.7
2018-03-20T06:34:27.950Z,990.6
2018-03-20T06:35:28.601Z,990.6
2018-03-20T06:36:29.252Z,990.6
2018-03-20T06:37:29.902Z,990.6
2018-03-20T06:38:30.553Z,990.6
2018-03-20T06:39:31.204Z,990.6
2018-03-20T06:40:31.855Z,990.6
2018-03-20T06:41:32.507Z,990.6
2018-03-20T06:42:33.158Z,990.5
2018-03-20T06:43:33.807Z,990.5
2018-03-20T06:44:34.458Z,990.6
2018-03-20T06:45:35.128Z,990.6
2018-03-20T06:46:35.760Z,990.5
2018-03-20T06:47:36.411Z,990.6
2018-03-20T06:48:37.063Z,990.6
2018-03-20T06:49:37.715Z,990.6
2018-03-20T06:50:38.366Z,990.6
2018-03-20T06:51:39.017Z,990.6
2018-03-20T06:52:39.667Z,990.6
2018-03-20T06:53:40.319Z,990.6
2018-03-20T06:54:40.968Z,990.6
2018-03-20T06:55:41.659Z,990.6
2018-03-20T06:56:42.313Z,990.6
2018-03-20T06:57:42.963Z,990.7
2018-03-20T06:58:43.614Z,990.7
2018-03-20T06:59:44.266Z,990.7
2018-03-20T07:00:44.917Z,990.7
2018-03-20T07:01:45.566Z,990.8
2018-03-20T07:02:46.219Z,990.8
2018-03-20T07:03:46.872Z,990.8
2018-03-20T07:04:47.523Z,990.8
2018-03-20T07:05:48.173Z,990.8
2018-03-20T07:06:48.824Z,990.8
2018-03-20T07:07:49.475Z,990.8
2018-03-20T07:08:50.126Z,990.9
2018-03-20T07:09:50.776Z,990.9
2018-03-20T07:10:51.428Z,990.8
2018-03-20T07:11:52.083Z,990.8
2018-03-20T07:12:52.739Z,990.8
2018-03-20T07:13:53.418Z,990.9
2018-03-20T07:14:54.070Z,990.8
2018-03-20T07:15:54.758Z,990.9
2018-03-20T07:16:55.409Z,990.9
2018-03-20T07:17:56.059Z,990.9
2018-03-20T07:18:56.709Z,990.9
2018-03-20T07:19:57.363Z,990.9
2018-03-20T07:20:58.017Z,990.9
2018-03-20T07:21:58.663Z,990.9
2018-03-20T07:22:59.315Z,990.9
2018-03-20T07:23:59.967Z,990.9
2018-03-20T07:25:00.619Z,990.9
2018-03-20T07:26:01.335Z,990.9
2018-03-20T07:27:01.921Z,991.0
2018-03-20T07:28:02.573Z,991.0
2018-03-20T07:29:03.225Z,990.9
2018-03-20T07:30:03.879Z,990.9
2018-03-20T07:31:04.532Z,990.9
2018-03-20T07:32:05.229Z,990.9
2018-03-20T07:33:05.908Z,990.9
2018-03-20T07:34:06.560Z,990.9
2018-03-20T07:35:07.211Z,990.9
2018-03-20T07:36:07.866Z,991.0
2018-03-20T07:37:08.518Z,990.9
2018-03-20T07:38:09.184Z,991.0
2018-03-20T07:39:09.823Z,991.0
2018-03-20T07:40:10.473Z,991.0
2018-03-20T07:41:11.161Z,991.0
2018-03-20T07:42:11.812Z,991.0
2018-03-20T07:43:12.466Z,991.0
2018-03-20T07:44:13.120Z,991.0
2018-03-20T07:45:13.773Z,991.1
2018-03-20T07:46:14.425Z,991.0
2018-03-20T07:47:15.077Z,991.0
2018-03-20T07:48:15.731Z,991.1
2018-03-20T07:49:16.383Z,991.1
2018-03-20T07:50:17.036Z,991.1
2018-03-20T07:51:17.687Z,991.1
2018-03-20T07:52:18.340Z,991.2
2018-03-20T07:53:19.028Z,991.2
2018-03-20T07:54:19.681Z,991.2
2018-03-20T07:55:20.333Z,991.2
2018-03-20T07:56:20.985Z,991.2
2018-03-20T07:57:21.684Z,991.2
2018-03-20T07:58:22.331Z,991.2
2018-03-20T07:59:22.984Z,991.2
2018-03-20T08:00:23.686Z,991.2
2018-03-20T08:01:24.337Z,991.2
2018-03-20T08:02:24.988Z,991.2
2018-03-20T08:03:25.641Z,991.2
2018-03-20T08:04:26.297Z,991.2
2018-03-20T08:05:26.987Z,991.3
2018-03-20T08:06:27.640Z,991.3
2018-03-20T08:07:28.299Z,991.3
2018-03-20T08:08:28.947Z,991.3
2018-03-20T08:09:29.600Z,991.3
2018-03-20T08:10:30.255Z,991.3
2018-03-20T08:11:30.942Z,991.3
2018-03-20T08:12:31.594Z,991.3
2018-03-20T08:13:32.248Z,991.3
2018-03-20T08:14:32.904Z,991.3
2018-03-20T08:15:33.559Z,991.3
2018-03-20T08:16:34.208Z,991.3
2018-03-20T08:17:34.864Z,991.3
2018-03-20T08:18:35.551Z,991.3
2018-03-20T08:19:36.206Z,991.2
2018-03-20T08:20:36.855Z,991.2
2018-03-20T08:21:37.509Z,991.3
2018-03-20T08:22:38.161Z,991.3
2018-03-20T08:23:38.812Z,991.3
2018-03-20T08:24:39.503Z,991.3
2018-03-20T08:25:40.193Z,991.3
2018-03-20T08:26:40.846Z,991.3
2018-03-20T08:27:41.499Z,991.3
2018-03-20T08:28:42.151Z,991.3
2018-03-20T08:29:42.804Z,991.4
2018-03-20T08:30:43.461Z,991.3
2018-03-20T08:31:44.110Z,991.3
2018-03-20T08:32:44.763Z,991.4
2018-03-20T08:33:45.417Z,991.4
2018-03-20T08:34:46.072Z,991.4
2018-03-20T08:35:46.724Z,991.4
2018-03-20T08:36:47.376Z,991.4
2018-03-20T08:37:48.032Z,991.3
2018-03-20T08:38:48.682Z,991.4
2018-03-20T08:39:49.332Z,991.4
2018-03-20T08:40:49.988Z,991.4
2018-03-20T08:41:50.640Z,991.4
2018-03-20T08:42:51.293Z,991.4
2018-03-20T08:43:51.944Z,991.4
2018-03-20T08:44:52.598Z,991.5
2018-03-20T08:45:53.249Z,991.5
2018-03-20T08:46:53.901Z,991.5
2018-03-20T08:47:54.556Z,991.5
2018-03-20T08:48:55.243Z,991.5
2018-03-20T08:49:55.915Z,991.6
2018-03-20T08:50:56.550Z,991.6
2018-03-20T08:51:57.201Z,991.6
2018-03-20T08:52:57.860Z,991.6
2018-03-20T08:53:58.509Z,991.6
2018-03-20T08:54:59.165Z,991.6
2018-03-20T08:55:59.817Z,991.7
2018-03-20T08:57:00.467Z,991.6
2018-03-20T08:58:01.122Z,991.7
2018-03-20T08:59:01.800Z,991.8
2018-03-20T09:00:02.428Z,991.8
2018-03-20T09:01:03.117Z,991.8
2018-03-20T09:02:03.770Z,991.8
2018-03-20T09:03:04.423Z,991.8
2018-03-20T09:04:05.077Z,991.8
2018-03-20T09:05:05.733Z,991.8
2018-03-20T09:06:06.387Z,991.8
2018-03-20T09:07:07.039Z,991.8
2018-03-20T09:08:07.699Z,991.8
2018-03-20T09:09:08.348Z,991.8
2018-03-20T09:10:09.003Z,991.7
2018-03-20T09:11:09.707Z,991.7
2018-03-20T09:12:10.362Z,991.8
2018-03-20T09:13:11.016Z,991.8
2018-03-20T09:14:11.670Z,991.8
2018-03-20T09:15:12.321Z,991.8
2018-03-20T09:16:12.974Z,991.8
2018-03-20T09:17:13.625Z,991.8
2018-03-20T09:18:14.278Z,991.8
2018-03-20T09:19:14.967Z,991.8
2018-03-20T09:20:15.619Z,991.8
2018-03-20T09:21:16.272Z,991.8
2018-03-20T09:22:16.925Z,991.8
2018-03-20T09:23:17.576Z,991.8
2018-03-20T09:24:18.231Z,991.8
2018-03-20T09:25:18.935Z,991.8
2018-03-20T09:26:19.569Z,991.8
2018-03-20T09:27:20.252Z,991.8
2018-03-20T09:28:20.906Z,991.8
2018-03-20T09:29:21.561Z,991.8
2018-03-20T09:30:22.213Z,991.9
2018-03-20T09:31:22.865Z,991.9
2018-03-20T09:32:23.517Z,991.8
2018-03-20T09:33:24.171Z,991.8
2018-03-20T09:34:24.829Z,991.9
2018-03-20T09:35:25.489Z,991.9
2018-03-20T09:36:26.130Z,992.0
2018-03-20T09:37:26.820Z,991.9
2018-03-20T09:38:27.474Z,991.9
2018-03-20T09:39:28.131Z,992.0
2018-03-20T09:40:28.780Z,992.0
2018-03-20T09:41:29.434Z,992.0
2018-03-20T09:42:30.089Z,991.9
2018-03-20T09:43:30.743Z,992.0
2018-03-20T09:44:31.395Z,992.0
2018-03-20T09:45:32.053Z,992.0
2018-03-20T09:46:32.740Z,992.0
2018-03-20T09:47:33.457Z,992.0
2018-03-20T09:48:34.084Z,992.1
2018-03-20T09:49:34.736Z,992.1
2018-03-20T09:50:35.391Z,992.1
2018-03-20T09:51:36.051Z,992.1
2018-03-20T09:52:36.738Z,992.1
2018-03-20T09:53:37.393Z,992.1
2018-03-20T09:54:38.047Z,992.1
2018-03-20T09:55:38.700Z,992.1
2018-03-20T09:56:39.356Z,992.2
2018-03-20T09:57:40.010Z,992.2
2018-03-20T09:58:40.663Z,992.2
2018-03-20T09:59:41.318Z,992.2
2018-03-20T10:00:41.973Z,992.2
2018-03-20T10:01:42.678Z,992.1
2018-03-20T10:02:43.332Z,992.1
2018-03-20T10:03:43.990Z,992.2
2018-03-20T10:04:44.677Z,992.3
2018-03-20T10:05:45.331Z,992.2
2018-03-20T10:06:45.986Z,992.2
2018-03-20T10:07:46.640Z,992.3
2018-03-20T10:08:47.295Z,992.3
2018-03-20T10:09:47.948Z,992.3
2018-03-20T10:10:48.606Z,992.4
2018-03-20T10:11:49.258Z,992.3
2018-03-20T10:12:49.911Z,992.3
2018-03-20T10:13:50.604Z,992.3
2018-03-20T10:14:51.257Z,992.3
2018-03-20T10:15:51.910Z,992.3
2018-03-20T10:16:52.564Z,992.4
2018-03-20T10:17:53.221Z,992.4
2018-03-20T10:18:53.875Z,992.4
2018-03-20T10:19:54.564Z,992.4
2018-03-20T10:20:55.218Z,992.4
2018-03-20T10:21:55.871Z,992.4
2018-03-20T10:22:56.525Z,992.4
2018-03-20T10:23:57.184Z,992.4
2018-03-20T10:24:57.868Z,992.5
2018-03-20T10:25:58.524Z,992.5
2018-03-20T10:26:59.184Z,992.5
2018-03-20T10:27:59.830Z,992.5
2018-03-20T10:29:00.485Z,992.5
2018-03-20T10:30:01.140Z,992.5
2018-03-20T10:31:01.832Z,992.6
2018-03-20T10:32:02.489Z,992.6
2018-03-20T10:33:03.183Z,992.6
2018-03-20T10:34:03.833Z,992.5
2018-03-20T10:35:04.513Z,992.6
2018-03-20T10:36:05.179Z,992.5
2018-03-20T10:37:05.834Z,992.6
2018-03-20T10:38:06.489Z,992.6
2018-03-20T10:39:07.151Z,992.6
2018-03-20T10:40:07.799Z,992.5
2018-03-20T10:41:08.451Z,992.6
2018-03-20T10:42:09.105Z,992.6
2018-03-20T10:43:09.759Z,992.6
2018-03-20T10:44:10.412Z,992.6
2018-03-20T10:45:11.067Z,992.6
2018-03-20T10:46:11.722Z,992.6
2018-03-20T10:47:12.376Z,992.6
2018-03-20T10:48:13.029Z,992.6
2018-03-20T10:49:13.682Z,992.6
2018-03-20T10:50:14.336Z,992.6
2018-03-20T10:51:14.994Z,992.6
2018-03-20T10:52:15.644Z,992.6
2018-03-20T10:53:16.298Z,992.6
2018-03-20T10:54:16.952Z,992.6
2018-03-20T10:55:17.604Z,992.7
2018-03-20T10:56:18.258Z,992.7
2018-03-20T10:57:18.913Z,992.7
2018-03-20T10:58:19.604Z,992.7
2018-03-20T10:59:20.259Z,992.7
2018-03-20T11:00:20.911Z,992.7
2018-03-20T11:01:21.564Z,992.7
2018-03-20T11:02:22.218Z,992.7
2018-03-20T11:03:22.872Z,992.7
2018-03-20T11:04:23.524Z,992.8
2018-03-20T11:05:24.180Z,992.7
2018-03-20T11:06:24.835Z,992.8
2018-03-20T11:07:25.489Z,992.7
2018-03-20T11:08:26.141Z,992.7
2018-03-20T11:09:26.796Z,992.8
2018-03-20T11:10:27.460Z,992.8
2018-03-20T11:11:28.103Z,992.8
2018-03-20T11:12:28.758Z,992.8
2018-03-20T11:13:29.413Z,992.8
2018-03-20T11:14:30.068Z,992.8
2018-03-20T11:15:30.720Z,992.8
2018-03-20T11:16:31.374Z,992.8
2018-03-20T11:17:32.079Z,992.8
2018-03-20T11:18:32.681Z,992.8
2018-03-20T11:19:33.339Z,992.9
2018-03-20T11:20:33.989Z,992.9
2018-03-20T11:21:34.641Z,992.9
2018-03-20T11:22:35.295Z,993.0
2018-03-20T11:23:35.948Z,992.9
2018-03-20T11:24:36.616Z,992.9
2018-03-20T11:25:37.255Z,992.9
2018-03-20T11:26:37.911Z,993.0
2018-03-20T11:27:38.566Z,993.0
2018-03-20T11:28:39.219Z,993.0
2018-03-20T11:29:39.908Z,993.0
2018-03-20T11:30:40.563Z,993.0
2018-03-20T11:31:41.216Z,993.0
2018-03-20T11:32:41.932Z,993.0
2018-03-20T11:33:42.575Z,993.0
2018-03-20T11:34:43.231Z,993.0
2018-03-20T11:35:43.885Z,993.1
2018-03-20T11:36:44.539Z,993.1
2018-03-20T11:37:45.192Z,993.1
2018-03-20T11:38:45.846Z,993.0
2018-03-20T11:39:46.499Z,993.1
2018-03-20T11:40:47.153Z,993.1
2018-03-20T11:41:47.846Z,993.0
2018-03-20T11:42:48.499Z,993.1
2018-03-20T11:43:49.153Z,993.1
2018-03-20T11:44:49.807Z,993.1
2018-03-20T11:45:50.460Z,993.1
2018-03-20T11:46:51.116Z,993.1
2018-03-20T11:47:51.773Z,993.1
2018-03-20T11:48:52.427Z,993.2
2018-03-20T11:49:53.080Z,993.2
2018-03-20T11:50:53.739Z,993.1
2018-03-20T11:51:54.388Z,993.2
2018-03-20T11:52:55.090Z,993.2
2018-03-20T11:53:55.757Z,993.2
2018-03-20T11:54:56.432Z,993.2
2018-03-20T11:55:57.053Z,993.2
2018-03-20T11:56:57.707Z,993.2
2018-03-20T11:57:58.360Z,993.3
2018-03-20T11:58:59.013Z,993.3
2018-03-20T11:59:59.669Z,993.3
2018-03-20T12:01:00.322Z,993.3
2018-03-20T12:02:00.984Z,993.3
2018-03-20T12:03:01.635Z,993.3
2018-03-20T12:04:02.292Z,993.3
2018-03-20T12:05:02.980Z,993.3
2018-03-20T12:06:03.636Z,993.4
2018-03-20T12:07:04.289Z,993.3
2018-03-20T12:08:04.944Z,993.3
2018-03-20T12:09:05.600Z,993.4
2018-03-20T12:10:06.257Z,993.3
2018-03-20T12:11:06.912Z,993.3
2018-03-20T12:12:07.603Z,993.4
2018-03-20T12:13:08.305Z,993.4
2018-03-20T12:14:08.908Z,993.4
2018-03-20T12:15:09.567Z,993.4
2018-03-20T12:16:10.222Z,993.4
2018-03-20T12:17:10.875Z,993.4
2018-03-20T12:18:11.528Z,993.4
2018-03-20T12:19:12.182Z,993.4
2018-03-20T12:20:12.837Z,993.4
2018-03-20T12:21:13.491Z,993.4
2018-03-20T12:22:14.145Z,993.4
2018-03-20T12:23:14.801Z,993.5
2018-03-20T12:24:15.456Z,993.5
2018-03-20T12:25:16.173Z,993.5
2018-03-20T12:26:16.792Z,993.5
2018-03-20T12:27:17.483Z,993.5
2018-03-20T12:28:18.137Z,993.5
2018-03-20T12:29:18.791Z,993.5
2018-03-20T12:30:19.446Z,993.6
2018-03-20T12:31:20.103Z,993.6
2018-03-20T12:32:20.754Z,993.6
2018-03-20T12:33:21.408Z,993.6
2018-03-20T12:34:22.101Z,993.6
2018-03-20T12:35:22.755Z,993.6
2018-03-20T12:36:23.411Z,993.6
2018-03-20T12:37:24.066Z,993.6
2018-03-20T12:38:24.719Z,993.6
2018-03-20T12:39:25.412Z,993.6
2018-03-20T12:40:26.029Z,993.6
2018-03-20T12:41:26.683Z,993.7
2018-03-20T12:42:27.336Z,993.6
2018-03-20T12:43:27.991Z,993.7
2018-03-20T12:44:28.645Z,993.6
2018-03-20T12:45:29.299Z,993.7
2018-03-20T12:46:30.009Z,993.7
2018-03-20T12:47:30.610Z,993.7
2018-03-20T12:48:31.314Z,993.7
2018-03-20T12:49:31.967Z,993.7
2018-03-20T12:50:32.624Z,993.7
2018-03-20T12:51:33.276Z,993.7
2018-03-20T12:52:33.930Z,993.8
2018-03-20T12:53:34.585Z,993.8
2018-03-20T12:54:35.255Z,993.8
2018-03-20T12:55:35.896Z,993.9
2018-03-20T12:56:36.549Z,993.8
2018-03-20T12:57:37.203Z,993.9
2018-03-20T12:58:37.856Z,993.9
2018-03-20T12:59:38.510Z,993.9
2018-03-20T13:00:39.202Z,993.9